Archival Weather

Chicago O'Hare International

Chicago, Illinois (KORD)

Report from: Tuesday, December 6, 2022 9:51 AM CST
Current time: Saturday, February 4, 2023 10:45 PM CST

Current weather
Weather history
Weather forecast

Temperature5.6°C (42.1°F)
Wind chill2.3°C (36.1°F)
Dew point1.7°C (35.1°F)
Winds 9 kts (4.6 m/s, 10.4 mph) Northeast (40°)
Visibility8 mi. (12.9 km)
Clouds Ceiling: Overcast 1,500 ft. (457 m)
Altimeter30.03 in.Hg (1017 mB)
Relative humidity76 %
Density altitude-1,156 ft. (-352 m)
Sea-level pressure101.8 kPa (1018 mB, 30.05 in.Hg)
Remarks Automated weather observing station with precipitation discriminator
Flight conditions Marginal Visual Meteorological Conditions
Raw dataKORD 061551Z 04009KT 8SM OVC015 06/02 A3003 RMK AO2 SLP175 T00560017
An unhandled exception has occurred. See browser dev tools for details. Reload 🗙